createdAt,value
2023-07-18T00:01:09.636Z,72.06
2023-07-18T00:03:36.989Z,71.57
2023-07-18T00:06:04.801Z,71.03
2023-07-18T00:08:31.876Z,72.02
2023-07-18T00:10:58.937Z,73.50
2023-07-18T00:13:25.886Z,73.73
2023-07-18T00:15:53.629Z,74.38
2023-07-18T00:18:22.757Z,74.41
2023-07-18T00:20:49.789Z,74.11
2023-07-18T00:23:16.856Z,73.89
2023-07-18T00:25:44.188Z,73.80
2023-07-18T00:28:11.317Z,73.97
2023-07-18T00:30:38.317Z,74.74
2023-07-18T00:33:05.297Z,74.77
2023-07-18T00:35:32.825Z,73.90
2023-07-18T00:38:01.548Z,73.54
2023-07-18T00:40:28.660Z,72.82
2023-07-18T00:42:55.609Z,73.43
2023-07-18T00:45:22.588Z,73.45
2023-07-18T00:47:50.193Z,74.01
2023-07-18T00:50:18.752Z,74.38
2023-07-18T00:52:48.935Z,74.51
2023-07-18T00:55:16.460Z,74.59
2023-07-18T00:57:46.120Z,74.64
2023-07-18T01:00:14.803Z,74.99
2023-07-18T01:02:45.118Z,74.95
2023-07-18T01:05:20.605Z,75.41
2023-07-18T01:07:48.624Z,74.80
2023-07-18T01:10:24.317Z,75.51
2023-07-18T01:12:57.121Z,75.97
2023-07-18T01:15:26.395Z,75.96
2023-07-18T01:17:53.917Z,76.36
2023-07-18T01:20:28.261Z,76.51
2023-07-18T01:23:01.985Z,76.81
2023-07-18T01:25:29.474Z,76.40
2023-07-18T01:27:58.088Z,77.05
2023-07-18T01:30:26.735Z,77.03
2023-07-18T01:32:55.207Z,77.56
2023-07-18T01:35:27.290Z,77.67
2023-07-18T01:37:57.560Z,77.90
2023-07-18T01:40:25.044Z,78.64
2023-07-18T01:42:54.055Z,79.38
2023-07-18T01:45:25.603Z,78.92
2023-07-18T01:47:53.827Z,79.06
2023-07-18T01:50:21.159Z,79.39
2023-07-18T01:52:49.113Z,79.88
2023-07-18T01:55:17.356Z,80.52
2023-07-18T01:57:46.955Z,81.17
2023-07-18T02:00:21.240Z,81.33
2023-07-18T02:02:51.372Z,82.20
2023-07-18T02:05:21.436Z,82.24
2023-07-18T02:07:49.588Z,83.03
2023-07-18T02:10:20.774Z,83.12
2023-07-18T02:12:50.284Z,83.93
2023-07-18T02:15:18.364Z,84.29
2023-07-18T02:17:46.758Z,84.10
2023-07-18T02:20:15.560Z,84.58
2023-07-18T02:22:45.894Z,84.55
2023-07-18T02:25:13.665Z,84.64
2023-07-18T02:27:42.022Z,85.11
2023-07-18T02:30:11.658Z,85.14
2023-07-18T02:32:43.338Z,85.26
2023-07-18T02:35:19.818Z,85.49
2023-07-18T02:37:47.985Z,86.00
2023-07-18T02:40:19.000Z,86.53
2023-07-18T02:42:47.584Z,86.79
2023-07-18T02:45:15.308Z,86.93
2023-07-18T02:47:42.961Z,88.20
2023-07-18T02:50:10.292Z,89.34
2023-07-18T02:52:37.504Z,88.87
2023-07-18T02:55:05.160Z,88.57
2023-07-18T02:57:33.073Z,89.06
2023-07-18T03:00:00.981Z,89.36
2023-07-18T03:02:34.659Z,89.05
2023-07-18T03:05:02.359Z,88.85
2023-07-18T03:07:32.198Z,88.93
2023-07-18T03:09:59.124Z,89.39
2023-07-18T03:12:26.157Z,88.88
2023-07-18T03:14:53.133Z,88.81
2023-07-18T03:17:20.109Z,89.07
2023-07-18T03:19:47.049Z,89.13
2023-07-18T03:22:16.021Z,88.86
2023-07-18T03:24:43.058Z,88.16
2023-07-18T03:27:10.087Z,87.72
2023-07-18T03:29:37.138Z,87.67
2023-07-18T03:32:04.402Z,86.83
2023-07-18T03:34:32.497Z,86.35
2023-07-18T03:37:00.412Z,85.70
2023-07-18T03:39:27.333Z,85.41
2023-07-18T03:41:54.346Z,84.98
2023-07-18T03:44:21.594Z,84.68
2023-07-18T03:46:48.527Z,84.08
2023-07-18T03:49:15.514Z,82.92
2023-07-18T03:51:42.597Z,81.16
2023-07-18T03:54:10.676Z,79.10
2023-07-18T03:56:38.186Z,77.33
2023-07-18T03:59:05.241Z,76.12
2023-07-18T04:01:32.444Z,74.21
2023-07-18T04:03:59.699Z,72.23
2023-07-18T04:06:26.810Z,71.04
2023-07-18T04:08:55.248Z,69.16
2023-07-18T04:11:22.631Z,68.18
2023-07-18T04:13:49.902Z,66.73
2023-07-18T04:16:17.057Z,65.59
2023-07-18T04:18:44.591Z,63.13
2023-07-18T04:21:11.605Z,64.59
2023-07-18T04:23:38.507Z,62.94
2023-07-18T04:26:05.546Z,61.96
2023-07-18T04:28:35.179Z,59.93
2023-07-18T04:31:03.205Z,59.41
2023-07-18T04:33:38.844Z,55.82
2023-07-18T04:36:07.622Z,54.98
2023-07-18T04:38:35.638Z,52.61
2023-07-18T04:41:04.242Z,51.20
2023-07-18T04:43:31.613Z,50.07
2023-07-18T04:45:58.676Z,48.16
2023-07-18T04:48:25.988Z,46.63
2023-07-18T04:51:01.187Z,45.28
2023-07-18T04:53:29.722Z,45.01
2023-07-18T04:55:57.106Z,44.29
2023-07-18T04:58:28.906Z,43.59
2023-07-18T05:00:57.597Z,45.34
2023-07-18T05:03:26.360Z,46.53
2023-07-18T05:05:54.492Z,48.42
2023-07-18T05:08:21.704Z,50.43
2023-07-18T05:10:49.277Z,51.78
2023-07-18T05:13:16.647Z,53.03
2023-07-18T05:15:44.208Z,54.23
2023-07-18T05:18:11.299Z,55.57
2023-07-18T05:20:38.351Z,56.78
2023-07-18T05:23:05.993Z,57.57
2023-07-18T05:25:32.968Z,59.22
2023-07-18T05:27:59.982Z,59.47
2023-07-18T05:30:28.325Z,61.04
2023-07-18T05:32:55.809Z,62.25
2023-07-18T05:35:23.085Z,61.91
2023-07-18T05:37:50.097Z,63.51
2023-07-18T05:40:21.774Z,61.15
2023-07-18T05:42:49.695Z,59.28
2023-07-18T05:45:16.810Z,56.30
2023-07-18T05:47:44.146Z,54.21
2023-07-18T05:50:11.897Z,51.64
2023-07-18T05:52:39.667Z,49.84
2023-07-18T05:55:07.721Z,48.29
2023-07-18T05:57:35.022Z,45.87
2023-07-18T06:00:02.585Z,44.08
2023-07-18T06:02:39.867Z,42.28
2023-07-18T06:05:08.175Z,42.11
2023-07-18T06:07:35.603Z,41.04
2023-07-18T06:10:03.274Z,39.51
2023-07-18T06:12:32.447Z,38.85
2023-07-18T06:14:59.772Z,37.77
2023-07-18T06:17:27.631Z,37.18
2023-07-18T06:19:54.624Z,34.71
2023-07-18T06:22:22.286Z,35.04
2023-07-18T06:24:49.436Z,36.01
2023-07-18T06:27:16.528Z,34.91
2023-07-18T06:29:45.435Z,34.67
2023-07-18T06:32:12.386Z,34.63
2023-07-18T06:34:42.352Z,34.48
2023-07-18T06:37:11.622Z,34.09
2023-07-18T06:39:39.694Z,34.21
2023-07-18T06:42:10.104Z,34.81
2023-07-18T06:44:37.564Z,35.04
2023-07-18T06:47:05.352Z,34.69
2023-07-18T06:49:32.523Z,34.79
2023-07-18T06:51:59.455Z,34.22
2023-07-18T06:54:26.485Z,34.00
2023-07-18T06:56:53.509Z,32.89
2023-07-18T06:59:20.461Z,32.31
2023-07-18T07:01:47.421Z,31.40
2023-07-18T07:04:14.502Z,31.48
2023-07-18T07:06:43.416Z,30.33
2023-07-18T07:09:14.192Z,29.66
2023-07-18T07:11:42.951Z,28.88
2023-07-18T07:14:10.269Z,29.21
2023-07-18T07:16:37.318Z,29.27
2023-07-18T07:19:06.824Z,28.47
2023-07-18T07:21:34.013Z,27.44
2023-07-18T07:24:01.999Z,27.14
2023-07-18T07:26:30.113Z,27.32
2023-07-18T07:28:57.534Z,26.91
2023-07-18T07:31:25.302Z,27.23
2023-07-18T07:33:53.252Z,27.51
2023-07-18T07:36:22.173Z,26.78
2023-07-18T07:38:49.697Z,28.17
2023-07-18T07:41:17.624Z,28.25
2023-07-18T07:43:44.965Z,27.61
2023-07-18T07:46:12.022Z,27.37
2023-07-18T07:48:40.328Z,26.07
2023-07-18T07:51:07.690Z,25.60
2023-07-18T07:53:34.776Z,25.75
2023-07-18T07:56:01.923Z,26.08
2023-07-18T07:58:28.987Z,26.97
2023-07-18T08:00:56.100Z,28.42
2023-07-18T08:03:23.222Z,29.86
2023-07-18T08:05:55.008Z,30.44
2023-07-18T08:08:22.100Z,30.19
2023-07-18T08:10:49.107Z,32.90
2023-07-18T08:13:18.432Z,35.40
2023-07-18T08:15:45.708Z,35.27
2023-07-18T08:18:12.872Z,34.65
2023-07-18T08:20:39.909Z,35.23
2023-07-18T08:23:07.025Z,35.60
2023-07-18T08:25:34.179Z,37.31
2023-07-18T08:28:01.297Z,38.36
2023-07-18T08:30:28.277Z,38.65
2023-07-18T08:32:55.368Z,38.03
2023-07-18T08:35:22.415Z,39.50
2023-07-18T08:37:49.365Z,40.04
2023-07-18T08:40:16.706Z,41.02
2023-07-18T08:42:43.949Z,41.42
2023-07-18T08:45:15.077Z,42.22
2023-07-18T08:47:45.054Z,42.99
2023-07-18T08:50:12.732Z,44.01
2023-07-18T08:52:40.959Z,43.00
2023-07-18T08:55:10.086Z,44.04
2023-07-18T08:57:38.710Z,44.62
2023-07-18T09:00:06.315Z,45.47
2023-07-18T09:02:35.185Z,46.29
2023-07-18T09:05:02.207Z,46.11
2023-07-18T09:07:37.365Z,45.90
2023-07-18T09:10:05.347Z,45.89
2023-07-18T09:12:36.612Z,44.99
2023-07-18T09:15:03.907Z,44.77
2023-07-18T09:17:33.597Z,45.17
2023-07-18T09:20:09.348Z,44.69
2023-07-18T09:22:36.642Z,43.33
2023-07-18T09:25:04.058Z,41.63
2023-07-18T09:27:31.256Z,42.10
2023-07-18T09:29:58.346Z,42.05
2023-07-18T09:32:26.145Z,41.90
2023-07-18T09:34:59.899Z,41.46
2023-07-18T09:37:28.966Z,41.44
2023-07-18T09:39:56.094Z,40.29
2023-07-18T09:42:25.133Z,39.63
2023-07-18T09:44:53.566Z,39.93
2023-07-18T09:47:21.730Z,40.58
2023-07-18T09:49:49.212Z,41.11
2023-07-18T09:52:17.389Z,38.00
2023-07-18T09:54:45.225Z,37.58
2023-07-18T09:57:13.885Z,36.75
2023-07-18T09:59:41.238Z,35.50
2023-07-18T10:02:11.889Z,37.33
2023-07-18T10:04:39.998Z,37.28
2023-07-18T10:07:11.555Z,37.32
2023-07-18T10:09:39.590Z,36.89
2023-07-18T10:12:07.370Z,37.83
2023-07-18T10:15:01.480Z,36.55
2023-07-18T10:17:35.452Z,35.17
2023-07-18T10:20:08.042Z,35.15
2023-07-18T10:22:35.150Z,36.03
2023-07-18T10:25:09.258Z,35.67
2023-07-18T10:27:47.047Z,36.53
2023-07-18T10:30:17.132Z,36.34
2023-07-18T10:32:57.118Z,37.11
2023-07-18T10:35:27.530Z,37.62
2023-07-18T10:37:57.174Z,38.09
2023-07-18T10:40:41.171Z,38.59
2023-07-18T10:43:17.030Z,39.56
2023-07-18T10:45:44.802Z,41.38
2023-07-18T10:48:16.100Z,40.91
2023-07-18T10:50:44.800Z,40.86
2023-07-18T10:53:20.059Z,42.45
2023-07-18T10:55:49.127Z,42.85
2023-07-18T10:58:18.516Z,42.71
2023-07-18T11:00:46.073Z,43.17
2023-07-18T11:03:23.747Z,44.14
2023-07-18T11:05:52.057Z,45.58
2023-07-18T11:08:26.520Z,48.75
2023-07-18T11:10:55.555Z,49.86
2023-07-18T11:13:37.118Z,51.51
2023-07-18T11:16:08.460Z,53.45
2023-07-18T11:18:36.903Z,65.34
2023-07-18T11:21:05.208Z,100.00
2023-07-18T11:23:34.183Z,100.00
2023-07-18T11:26:10.324Z,100.00
2023-07-18T11:28:37.426Z,100.00
2023-07-18T11:31:04.618Z,100.00
2023-07-18T11:33:34.385Z,100.00
2023-07-18T11:36:02.022Z,100.00
2023-07-18T11:38:30.188Z,100.00
2023-07-18T11:40:58.895Z,100.00
2023-07-18T11:43:31.300Z,100.00
2023-07-18T11:45:58.316Z,100.00
2023-07-18T11:48:26.502Z,100.00
2023-07-18T11:50:54.400Z,100.00
2023-07-18T11:53:28.642Z,100.00
2023-07-18T11:55:56.884Z,100.00
2023-07-18T11:58:25.718Z,100.00
2023-07-18T12:00:57.954Z,100.00
2023-07-18T12:03:25.075Z,100.00
2023-07-18T12:05:52.228Z,100.00
2023-07-18T12:08:20.303Z,100.00
2023-07-18T12:10:56.369Z,100.00
2023-07-18T12:13:34.070Z,100.00
2023-07-18T12:16:01.355Z,100.00
2023-07-18T12:18:29.536Z,100.00
2023-07-18T12:20:56.574Z,100.00
2023-07-18T12:23:23.543Z,100.00
2023-07-18T12:25:51.122Z,100.00
2023-07-18T12:28:18.237Z,100.00
2023-07-18T12:30:45.547Z,100.00
2023-07-18T12:33:13.458Z,100.00
2023-07-18T12:35:40.494Z,100.00
2023-07-18T12:38:07.837Z,100.00
2023-07-18T12:40:34.915Z,100.00
2023-07-18T12:43:01.922Z,100.00
2023-07-18T12:45:30.118Z,100.00
2023-07-18T12:47:57.266Z,100.00
2023-07-18T12:50:27.002Z,100.00
2023-07-18T12:52:54.867Z,100.00
2023-07-18T12:55:21.943Z,100.00
2023-07-18T12:57:49.606Z,100.00
2023-07-18T13:00:17.103Z,100.00
2023-07-18T13:02:47.939Z,100.00
2023-07-18T13:05:15.138Z,100.00
2023-07-18T13:07:42.321Z,100.00
2023-07-18T13:10:11.362Z,100.00
2023-07-18T13:12:39.831Z,100.00
2023-07-18T13:15:07.298Z,100.00
2023-07-18T13:17:34.409Z,100.00
2023-07-18T13:20:01.453Z,100.00
2023-07-18T13:22:31.834Z,100.00
2023-07-18T13:24:58.832Z,100.00
2023-07-18T13:27:25.767Z,100.00
2023-07-18T13:29:53.061Z,100.00
2023-07-18T13:32:20.072Z,100.00
2023-07-18T13:34:47.195Z,100.00
2023-07-18T13:37:16.041Z,100.00
2023-07-18T13:39:43.089Z,100.00
2023-07-18T13:42:10.000Z,100.00
2023-07-18T13:44:37.048Z,100.00
2023-07-18T13:47:04.771Z,100.00
2023-07-18T13:52:03.374Z,100.00
2023-07-18T13:54:30.452Z,100.00
2023-07-18T13:56:57.413Z,100.00
2023-07-18T13:59:24.338Z,100.00
2023-07-18T14:01:51.353Z,100.00
2023-07-18T14:04:20.989Z,100.00
2023-07-18T14:06:48.111Z,100.00
2023-07-18T14:09:15.743Z,100.00
2023-07-18T14:11:42.703Z,100.00
2023-07-18T14:14:11.862Z,100.00
2023-07-18T14:16:38.860Z,100.00
2023-07-18T14:19:05.958Z,100.00
2023-07-18T14:21:32.976Z,100.00
2023-07-18T14:24:02.451Z,100.00
2023-07-18T14:26:29.643Z,100.00
2023-07-18T14:28:56.668Z,100.00
2023-07-18T14:31:23.763Z,100.00
2023-07-18T14:34:04.721Z,100.00
2023-07-18T14:36:33.663Z,100.00
2023-07-18T14:39:00.887Z,100.00
2023-07-18T14:41:27.872Z,100.00
2023-07-18T14:43:54.860Z,100.00
2023-07-18T14:46:23.519Z,100.00
2023-07-18T14:48:51.042Z,100.00
2023-07-18T14:51:18.006Z,100.00
2023-07-18T14:53:47.119Z,100.00
2023-07-18T14:56:14.193Z,100.00
2023-07-18T14:58:41.248Z,100.00
2023-07-18T15:01:08.266Z,100.00
2023-07-18T15:03:36.881Z,100.00
2023-07-18T15:06:07.279Z,100.00
2023-07-18T15:08:35.119Z,100.00
2023-07-18T15:11:02.546Z,100.00
2023-07-18T15:13:29.574Z,100.00
2023-07-18T15:15:56.589Z,100.00
2023-07-18T15:18:23.572Z,100.00
2023-07-18T15:20:50.646Z,100.00
2023-07-18T15:23:17.682Z,100.00
2023-07-18T15:25:45.084Z,100.00
2023-07-18T15:28:14.760Z,100.00
2023-07-18T15:30:42.711Z,100.00
2023-07-18T15:33:25.574Z,100.00
2023-07-18T15:35:54.108Z,100.00
2023-07-18T15:38:21.291Z,100.00
2023-07-18T15:40:48.903Z,100.00
2023-07-18T15:43:15.831Z,100.00
2023-07-18T15:45:47.080Z,100.00
2023-07-18T15:48:15.526Z,100.00
2023-07-18T15:50:42.722Z,100.00
2023-07-18T15:53:09.748Z,100.00
2023-07-18T15:55:36.834Z,100.00
2023-07-18T15:58:03.745Z,100.00
2023-07-18T16:00:35.354Z,100.00
2023-07-18T16:03:02.428Z,100.00
2023-07-18T16:05:29.460Z,100.00
2023-07-18T16:07:56.456Z,100.00
2023-07-18T16:10:23.648Z,100.00
2023-07-18T16:12:52.267Z,100.00
2023-07-18T16:15:20.631Z,100.00
2023-07-18T16:17:47.677Z,100.00
2023-07-18T16:20:14.725Z,100.00
2023-07-18T16:22:53.962Z,100.00
2023-07-18T16:25:21.100Z,100.00
2023-07-18T16:27:49.906Z,100.00
2023-07-18T16:30:19.285Z,100.00
2023-07-18T16:32:46.521Z,100.00
2023-07-18T16:35:13.842Z,100.00
2023-07-18T16:37:43.493Z,100.00
2023-07-18T16:40:11.464Z,100.00
2023-07-18T16:42:38.429Z,100.00
2023-07-18T16:45:05.928Z,100.00
2023-07-18T16:47:33.959Z,100.00
2023-07-18T16:50:01.250Z,100.00
2023-07-18T16:52:31.225Z,100.00
2023-07-18T16:54:58.238Z,100.00
2023-07-18T16:57:25.293Z,100.00
2023-07-18T16:59:52.377Z,100.00
2023-07-18T17:02:19.668Z,100.00
2023-07-18T17:04:46.870Z,100.00
2023-07-18T17:07:14.153Z,100.00
2023-07-18T17:09:41.232Z,100.00
2023-07-18T17:12:11.583Z,100.00
2023-07-18T17:14:40.870Z,100.00
2023-07-18T17:17:08.675Z,100.00
2023-07-18T17:19:42.003Z,100.00
2023-07-18T17:22:19.865Z,100.00
2023-07-18T17:24:46.907Z,100.00
2023-07-18T17:27:13.853Z,100.00
2023-07-18T17:29:40.940Z,100.00
2023-07-18T17:32:08.046Z,100.00
2023-07-18T17:34:36.744Z,100.00
2023-07-18T17:37:04.899Z,100.00
2023-07-18T17:39:33.465Z,100.00
2023-07-18T17:42:01.307Z,100.00
2023-07-18T17:44:28.370Z,100.00
2023-07-18T17:46:55.624Z,100.00
2023-07-18T17:49:22.791Z,100.00
2023-07-18T17:51:49.695Z,100.00
2023-07-18T17:54:16.635Z,100.00
2023-07-18T17:56:43.727Z,100.00
2023-07-18T17:59:10.776Z,100.00
2023-07-18T18:01:38.421Z,100.00
2023-07-18T18:04:07.603Z,100.00
2023-07-18T18:06:34.960Z,100.00
2023-07-18T18:09:01.964Z,100.00
2023-07-18T18:11:29.164Z,100.00
2023-07-18T18:13:58.004Z,100.00
2023-07-18T18:16:25.273Z,100.00
2023-07-18T18:18:52.296Z,100.00
2023-07-18T18:21:19.660Z,100.00
2023-07-18T18:23:46.866Z,100.00
2023-07-18T18:26:13.927Z,100.00
2023-07-18T18:28:40.885Z,100.00
2023-07-18T18:31:07.925Z,100.00
2023-07-18T18:33:35.050Z,100.00
2023-07-18T18:36:02.489Z,100.00
2023-07-18T18:38:29.543Z,100.00
2023-07-18T18:40:58.978Z,100.00
2023-07-18T18:43:26.473Z,100.00
2023-07-18T18:45:53.526Z,100.00
2023-07-18T18:48:20.595Z,100.00
2023-07-18T18:50:49.973Z,100.00
2023-07-18T18:53:18.106Z,100.00
2023-07-18T18:55:45.211Z,100.00
2023-07-18T18:58:14.343Z,100.00
2023-07-18T19:00:41.667Z,100.00
2023-07-18T19:03:09.008Z,100.00
2023-07-18T19:05:36.205Z,100.00
2023-07-18T19:08:03.678Z,100.00
2023-07-18T19:10:31.290Z,100.00
2023-07-18T19:12:58.268Z,100.00
2023-07-18T19:15:25.369Z,100.00
2023-07-18T19:17:54.049Z,100.00
2023-07-18T19:20:21.331Z,100.00
2023-07-18T19:22:48.652Z,100.00
2023-07-18T19:25:16.269Z,100.00
2023-07-18T19:27:43.299Z,100.00
2023-07-18T19:30:12.769Z,100.00
2023-07-18T19:32:44.250Z,100.00
2023-07-18T19:35:11.317Z,100.00
2023-07-18T19:37:38.393Z,100.00
2023-07-18T19:40:05.848Z,100.00
2023-07-18T19:42:32.961Z,100.00
2023-07-18T19:45:00.202Z,100.00
2023-07-18T19:47:27.359Z,100.00
2023-07-18T19:49:54.339Z,100.00
2023-07-18T19:52:22.039Z,100.00
2023-07-18T19:54:49.042Z,100.00
2023-07-18T19:57:16.080Z,100.00
2023-07-18T19:59:42.986Z,100.00
2023-07-18T20:02:09.978Z,100.00
2023-07-18T20:04:37.105Z,100.00
2023-07-18T20:07:04.432Z,100.00
2023-07-18T20:09:31.441Z,100.00
2023-07-18T20:11:58.407Z,100.00
2023-07-18T20:14:25.435Z,100.00
2023-07-18T20:16:52.563Z,100.00
2023-07-18T20:19:19.580Z,100.00
2023-07-18T20:21:46.835Z,100.00
2023-07-18T20:24:13.799Z,100.00
2023-07-18T20:26:43.623Z,100.00
2023-07-18T20:29:10.734Z,100.00
2023-07-18T20:31:38.107Z,100.00
2023-07-18T20:34:05.076Z,100.00
2023-07-18T20:36:31.978Z,100.00
2023-07-18T20:38:58.941Z,100.00
2023-07-18T20:41:26.435Z,100.00
2023-07-18T20:43:53.433Z,100.00
2023-07-18T20:46:22.487Z,100.00
2023-07-18T20:48:49.560Z,100.00
2023-07-18T20:51:16.547Z,100.00
2023-07-18T20:53:43.623Z,100.00
2023-07-18T20:56:10.642Z,100.00
2023-07-18T20:58:37.749Z,100.00
2023-07-18T21:01:04.960Z,100.00
2023-07-18T21:03:34.310Z,100.00
2023-07-18T21:06:01.434Z,100.00
2023-07-18T21:08:28.408Z,100.00
